Time;durP1;ratioP1;P1;durP2;ratioP2;P2;SDS_P1;SDS_P2;PMS_P1;PMS_P2;Temp;Humidity;BMP_temperature;BMP_pressure;BME280_temperature;BME280_humidity;BME280_pressure;Samples;Min_cycle;Max_cycle;Signal;HPM_P1;HPM_P2
2021/06/28 00:00:08;;;;;;;8.53;4.70;;;22.40;69.60;;;;;;5089849;28;20148;-79
2021/06/28 00:02:52;;;;;;;7.63;5.30;;;22.40;69.70;;;;;;5093732;28;20269;-79
2021/06/28 00:05:37;;;;;;;11.40;7.10;;;22.30;69.80;;;;;;5041822;28;20096;-80
2021/06/28 00:08:17;;;;;;;14.45;8.27;;;22.30;70.10;;;;;;5055018;28;20074;-80
2021/06/28 00:11:02;;;;;;;11.40;7.05;;;22.30;70.30;;;;;;5075850;28;20067;-80
2021/06/28 00:13:49;;;;;;;10.20;7.05;;;22.20;70.40;;;;;;5068243;28;20088;-78
2021/06/28 00:16:35;;;;;;;12.38;8.45;;;22.10;70.70;;;;;;5069756;28;20105;-79
2021/06/28 00:19:21;;;;;;;12.52;6.88;;;22.20;70.90;;;;;;5078958;28;20119;-78
2021/06/28 00:22:07;;;;;;;9.80;5.97;;;22.10;71.00;;;;;;5090220;28;20028;-78
2021/06/28 00:24:52;;;;;;;8.00;6.55;;;22.10;71.10;;;;;;5073631;28;20029;-78
2021/06/28 00:27:40;;;;;;;9.73;5.93;;;22.10;71.20;;;;;;5069765;28;20476;-78
2021/06/28 00:30:27;;;;;;;7.82;5.93;;;22.10;71.50;;;;;;5070305;28;20029;-78
2021/06/28 00:33:16;;;;;;;10.20;6.43;;;22.10;71.80;;;;;;5069869;28;20032;-78
2021/06/28 00:36:02;;;;;;;8.63;5.30;;;22.00;72.00;;;;;;5073427;28;20029;-79
2021/06/28 00:38:48;;;;;;;7.05;5.05;;;22.00;72.10;;;;;;5073555;28;20063;-78
2021/06/28 00:41:34;;;;;;;7.47;5.57;;;21.90;72.10;;;;;;5070097;28;20104;-78
2021/06/28 00:44:20;;;;;;;12.20;5.85;;;21.90;72.40;;;;;;5079401;28;20024;-78
2021/06/28 00:47:06;;;;;;;8.13;5.47;;;21.90;72.70;;;;;;5089925;28;20043;-78
2021/06/28 00:49:52;;;;;;;7.65;6.07;;;21.90;72.80;;;;;;5069926;28;20052;-78
2021/06/28 00:52:39;;;;;;;7.78;5.90;;;21.90;72.90;;;;;;5090321;28;20024;-78
2021/06/28 00:55:26;;;;;;;8.07;5.13;;;21.80;73.00;;;;;;5087377;28;20020;-78
2021/06/28 00:58:13;;;;;;;7.45;5.60;;;21.80;73.30;;;;;;5086177;28;20127;-78
2021/06/28 01:00:59;;;;;;;7.80;5.97;;;21.80;73.30;;;;;;5069640;28;20024;-78
2021/06/28 01:03:44;;;;;;;7.90;5.72;;;21.80;73.50;;;;;;5070092;28;20091;-78
2021/06/28 01:06:30;;;;;;;7.72;6.53;;;21.80;73.90;;;;;;5070438;28;20524;-78
2021/06/28 01:09:16;;;;;;;11.57;5.28;;;21.70;74.00;;;;;;5069149;28;20024;-77
2021/06/28 01:12:04;;;;;;;6.93;5.50;;;21.70;74.20;;;;;;5071092;28;20404;-78
2021/06/28 01:14:50;;;;;;;8.27;5.90;;;21.70;74.40;;;;;;5070262;28;20492;-78
2021/06/28 01:17:37;;;;;;;7.60;5.22;;;21.60;74.60;;;;;;5069978;28;20055;-78
2021/06/28 01:20:26;;;;;;;10.30;6.00;;;21.70;74.60;;;;;;5090923;28;20130;-79
2021/06/28 01:23:24;;;;;;;7.78;5.22;;;21.60;74.70;;;;;;5077735;28;20028;-79
2021/06/28 01:26:11;;;;;;;6.85;5.72;;;21.60;74.90;;;;;;5058793;28;20601;-79
2021/06/28 01:28:57;;;;;;;7.43;5.55;;;21.60;75.10;;;;;;5079170;28;20028;-77
2021/06/28 01:31:42;;;;;;;8.48;6.07;;;21.60;75.30;;;;;;5079087;28;20035;-79
2021/06/28 01:34:28;;;;;;;6.97;6.18;;;21.60;75.50;;;;;;5081172;28;20012;-79
2021/06/28 01:37:22;;;;;;;8.40;5.75;;;21.60;75.60;;;;;;5068164;28;20068;-80
2021/06/28 01:40:10;;;;;;;7.00;5.82;;;21.50;75.80;;;;;;5053941;28;20052;-79
2021/06/28 01:42:56;;;;;;;8.45;5.80;;;21.50;75.80;;;;;;5069853;28;20024;-79
2021/06/28 01:45:42;;;;;;;9.60;5.90;;;21.50;76.20;;;;;;5084408;28;20043;-79
2021/06/28 01:48:28;;;;;;;6.82;5.65;;;21.50;76.30;;;;;;5073286;28;20033;-78
2021/06/28 01:51:14;;;;;;;8.32;5.38;;;21.40;76.50;;;;;;5069507;28;20021;-79
2021/06/28 01:54:00;;;;;;;9.70;6.13;;;21.50;76.70;;;;;;5063142;28;20404;-78
2021/06/28 01:56:46;;;;;;;8.05;5.68;;;21.40;76.80;;;;;;5079772;28;20023;-80
2021/06/28 01:59:36;;;;;;;8.18;5.35;;;21.40;76.80;;;;;;5092115;28;20055;-80
2021/06/28 02:02:21;;;;;;;7.78;5.97;;;21.40;77.10;;;;;;5090709;28;20028;-80
2021/06/28 02:05:08;;;;;;;9.15;6.68;;;21.30;77.30;;;;;;5085479;28;20466;-80
2021/06/28 02:07:54;;;;;;;9.38;6.40;;;21.30;77.40;;;;;;5060025;28;20053;-79
2021/06/28 02:10:41;;;;;;;6.32;5.50;;;21.30;77.60;;;;;;5064339;28;20500;-79
2021/06/28 02:13:29;;;;;;;6.38;5.40;;;21.20;77.70;;;;;;5073945;28;20044;-79
2021/06/28 02:16:14;;;;;;;8.82;6.25;;;21.20;77.70;;;;;;5073265;28;20048;-79
2021/06/28 02:18:58;;;;;;;6.93;5.18;;;21.20;77.70;;;;;;5073716;28;20097;-79
2021/06/28 02:21:44;;;;;;;7.35;5.80;;;21.20;77.80;;;;;;5079533;28;20472;-79
2021/06/28 02:24:28;;;;;;;9.18;6.00;;;21.20;77.90;;;;;;5094285;28;20085;-78
2021/06/28 02:27:11;;;;;;;7.15;6.32;;;21.20;78.10;;;;;;5080826;28;20397;-70
2021/06/28 02:29:55;;;;;;;9.45;6.82;;;21.10;78.10;;;;;;5072863;28;20051;-70
2021/06/28 02:32:40;;;;;;;7.63;6.57;;;21.10;78.10;;;;;;5057585;28;20094;-71
2021/06/28 02:35:24;;;;;;;7.30;6.10;;;21.10;78.30;;;;;;5088631;28;20368;-70
2021/06/28 02:38:08;;;;;;;7.90;6.10;;;21.10;78.40;;;;;;5090566;28;20090;-70
2021/06/28 02:40:53;;;;;;;7.27;6.03;;;21.00;78.50;;;;;;5076062;28;20031;-71
2021/06/28 02:43:38;;;;;;;6.53;5.60;;;21.00;78.70;;;;;;5053410;28;20114;-71
2021/06/28 02:46:23;;;;;;;8.82;6.13;;;21.00;78.90;;;;;;5057930;28;20388;-71
2021/06/28 02:49:07;;;;;;;10.07;6.25;;;21.00;78.90;;;;;;5073475;28;20400;-69
2021/06/28 02:51:52;;;;;;;7.07;5.65;;;21.00;79.10;;;;;;5071505;28;20054;-70
2021/06/28 02:54:36;;;;;;;8.80;6.60;;;21.00;79.20;;;;;;5072025;28;20048;-69
2021/06/28 02:57:20;;;;;;;8.20;6.57;;;21.00;79.30;;;;;;5072357;28;20109;-68
2021/06/28 03:00:22;;;;;;;7.70;6.60;;;20.90;79.50;;;;;;5072365;28;20043;-70
2021/06/28 03:03:07;;;;;;;7.45;6.32;;;20.90;79.60;;;;;;5075255;28;20119;-70
2021/06/28 03:05:51;;;;;;;9.60;5.90;;;20.80;80.20;;;;;;5075914;28;20105;-70
2021/06/28 03:08:35;;;;;;;8.75;5.70;;;20.80;79.70;;;;;;5072916;28;20048;-69
2021/06/28 03:11:21;;;;;;;7.50;5.75;;;20.80;79.90;;;;;;5074172;28;20074;-70
2021/06/28 03:14:05;;;;;;;8.40;5.97;;;20.80;80.10;;;;;;5092998;28;20046;-69
2021/06/28 03:16:49;;;;;;;8.57;6.07;;;20.80;80.30;;;;;;5089869;28;20126;-69
2021/06/28 03:19:33;;;;;;;7.47;6.57;;;20.80;80.50;;;;;;5092840;28;20165;-70
2021/06/28 03:22:17;;;;;;;7.95;5.82;;;20.70;80.40;;;;;;5089538;28;20285;-69
2021/06/28 03:25:02;;;;;;;9.43;6.20;;;20.70;80.50;;;;;;5093106;28;20043;-70
2021/06/28 03:27:47;;;;;;;8.20;5.72;;;20.70;80.70;;;;;;5061590;28;20039;-69
2021/06/28 03:30:31;;;;;;;8.48;6.45;;;20.70;80.90;;;;;;5072367;28;20071;-69
2021/06/28 03:33:15;;;;;;;7.80;6.28;;;20.70;80.80;;;;;;5072255;28;20115;-69
2021/06/28 03:35:59;;;;;;;8.63;6.10;;;20.70;80.90;;;;;;5070800;28;20101;-69
2021/06/28 03:38:44;;;;;;;8.60;6.00;;;20.70;81.10;;;;;;5092186;28;20047;-69
2021/06/28 03:41:28;;;;;;;8.07;5.63;;;20.70;81.20;;;;;;5085290;28;20031;-68
2021/06/28 03:44:12;;;;;;;8.03;5.97;;;20.80;81.50;;;;;;5072265;28;20044;-69
2021/06/28 03:46:56;;;;;;;7.00;5.73;;;20.80;81.60;;;;;;5079049;28;20277;-69
2021/06/28 03:49:40;;;;;;;9.90;6.13;;;20.80;81.70;;;;;;5092268;28;20043;-69
2021/06/28 03:52:24;;;;;;;7.47;6.30;;;20.80;81.70;;;;;;5077795;28;20575;-68
2021/06/28 03:55:09;;;;;;;10.23;6.33;;;20.90;81.90;;;;;;5052728;28;20117;-68
2021/06/28 03:57:53;;;;;;;9.65;6.35;;;20.90;81.60;;;;;;5065489;28;20036;-68
2021/06/28 04:00:37;;;;;;;9.83;6.37;;;20.90;81.60;;;;;;5071813;28;20408;-68
2021/06/28 04:03:26;;;;;;;8.82;6.97;;;20.90;81.60;;;;;;5051450;28;20409;-68
2021/06/28 04:06:10;;;;;;;7.35;6.15;;;21.00;81.60;;;;;;5053457;28;20098;-69
2021/06/28 04:08:54;;;;;;;9.00;6.10;;;21.00;81.40;;;;;;5057826;28;20044;-68
2021/06/28 04:11:38;;;;;;;8.37;6.23;;;21.00;81.30;;;;;;5065376;28;20105;-68
2021/06/28 04:14:22;;;;;;;8.63;5.70;;;21.00;81.30;;;;;;5070464;28;20101;-69
2021/06/28 04:17:06;;;;;;;8.23;5.93;;;21.10;81.20;;;;;;5079964;28;20046;-68
2021/06/28 04:19:50;;;;;;;8.60;6.00;;;21.10;81.20;;;;;;5091393;28;20071;-68
2021/06/28 04:22:34;;;;;;;6.40;5.50;;;21.10;81.30;;;;;;5075156;28;20313;-69
2021/06/28 04:25:21;;;;;;;8.40;5.80;;;21.20;81.40;;;;;;5051078;28;20600;-69
2021/06/28 04:28:05;;;;;;;7.32;5.60;;;21.30;81.30;;;;;;5086455;28;20572;-69
2021/06/28 04:30:49;;;;;;;7.65;6.20;;;21.30;81.30;;;;;;5089602;28;20054;-69
2021/06/28 04:33:33;;;;;;;13.30;6.32;;;21.40;81.20;;;;;;5051228;28;20048;-68
2021/06/28 04:36:17;;;;;;;9.70;6.17;;;21.40;81.00;;;;;;5039270;28;20030;-69
2021/06/28 04:39:02;;;;;;;8.05;5.57;;;21.50;81.50;;;;;;5071140;28;20043;-68
2021/06/28 04:41:46;;;;;;;7.47;5.72;;;21.60;80.90;;;;;;5077557;28;20502;-69
2021/06/28 04:44:30;;;;;;;8.70;6.32;;;21.60;80.60;;;;;;5091553;28;20035;-69
2021/06/28 04:47:14;;;;;;;10.13;6.50;;;21.60;80.10;;;;;;5078394;28;20043;-69
2021/06/28 04:50:02;;;;;;;10.07;6.50;;;21.60;79.80;;;;;;5073226;28;20342;-69
2021/06/28 04:52:46;;;;;;;8.70;6.18;;;21.60;79.40;;;;;;5082316;28;20063;-69
2021/06/28 04:55:30;;;;;;;7.55;6.03;;;21.60;79.70;;;;;;5055568;28;20455;-69
2021/06/28 04:58:14;;;;;;;7.27;6.20;;;21.70;79.50;;;;;;5094553;28;20479;-70
2021/06/28 05:00:58;;;;;;;9.90;6.20;;;21.70;79.30;;;;;;5077121;28;20265;-70
2021/06/28 05:03:43;;;;;;;8.57;5.72;;;21.70;79.30;;;;;;5075402;28;20629;-69
2021/06/28 05:06:27;;;;;;;11.02;5.57;;;21.70;79.10;;;;;;5058936;28;20075;-70
2021/06/28 05:09:11;;;;;;;8.77;6.13;;;21.80;78.90;;;;;;5060218;28;20388;-71
2021/06/28 05:11:55;;;;;;;9.90;6.63;;;21.80;78.80;;;;;;5081585;28;20509;-71
2021/06/28 05:14:40;;;;;;;10.33;6.60;;;21.80;78.60;;;;;;5079924;28;20047;-71
2021/06/28 05:17:27;;;;;;;10.05;6.22;;;21.90;78.60;;;;;;5092099;28;20297;-70
2021/06/28 05:20:13;;;;;;;7.65;6.05;;;22.00;78.40;;;;;;5094958;28;20116;-70
2021/06/28 05:22:57;;;;;;;9.45;6.65;;;22.00;78.80;;;;;;5091940;28;20042;-70
2021/06/28 05:25:42;;;;;;;10.27;6.47;;;22.10;78.40;;;;;;5078446;28;20205;-70
2021/06/28 05:28:26;;;;;;;;;;;22.20;78.50;;;;;;5095271;28;20043;-71
2021/06/28 05:31:10;;;;;;;8.20;6.15;;;22.20;78.20;;;;;;5079688;28;19920;-70
2021/06/28 05:33:54;;;;;;;11.18;6.72;;;22.20;78.00;;;;;;5074840;28;20032;-70
2021/06/28 05:36:39;;;;;;;12.48;7.82;;;22.30;77.70;;;;;;5079289;28;20089;-70
2021/06/28 05:39:22;;;;;;;10.93;6.65;;;22.40;77.50;;;;;;5094795;28;20047;-69
2021/06/28 05:42:06;;;;;;;9.75;5.95;;;22.50;77.20;;;;;;5091889;28;20081;-72
2021/06/28 05:44:50;;;;;;;12.90;6.53;;;22.50;77.00;;;;;;5088964;28;20055;-72
2021/06/28 05:47:34;;;;;;;7.07;6.00;;;22.60;76.80;;;;;;5086462;28;20043;-71
2021/06/28 05:50:19;;;;;;;10.43;6.20;;;22.70;76.80;;;;;;5067540;28;20086;-72
2021/06/28 05:53:03;;;;;;;8.65;6.03;;;22.80;76.60;;;;;;5075919;28;20586;-72
2021/06/28 05:55:48;;;;;;;9.25;5.75;;;22.90;76.50;;;;;;5093067;28;20035;-71
2021/06/28 05:58:32;;;;;;;10.70;6.47;;;23.00;76.50;;;;;;5038885;28;20582;-72
2021/06/28 06:01:16;;;;;;;10.43;6.80;;;23.00;76.20;;;;;;5059506;28;20031;-72
2021/06/28 06:04:00;;;;;;;11.88;6.82;;;23.00;76.20;;;;;;5093465;28;20035;-72
2021/06/28 06:06:45;;;;;;;10.68;6.38;;;23.10;76.00;;;;;;5084542;28;20507;-72
2021/06/28 06:09:29;;;;;;;11.40;6.40;;;23.20;75.70;;;;;;5073987;28;20036;-73
2021/06/28 06:12:13;;;;;;;13.07;6.50;;;23.20;75.90;;;;;;5083721;28;20088;-73
2021/06/28 06:14:58;;;;;;;12.13;6.25;;;23.30;75.60;;;;;;5071499;28;20032;-71
2021/06/28 06:17:45;;;;;;;9.88;6.32;;;23.40;75.30;;;;;;5087188;28;20039;-71
2021/06/28 06:20:31;;;;;;;18.70;7.03;;;23.50;74.00;;;;;;5091058;28;20450;-71
2021/06/28 06:23:17;;;;;;;7.03;5.60;;;23.50;74.20;;;;;;5055513;28;20025;-72
2021/06/28 06:26:03;;;;;;;12.88;6.22;;;23.60;74.00;;;;;;5061376;28;20028;-71
2021/06/28 06:28:49;;;;;;;9.88;5.60;;;23.70;73.10;;;;;;5071973;28;20024;-71
2021/06/28 06:31:35;;;;;;;7.95;4.95;;;23.80;72.70;;;;;;5074750;28;20024;-71
2021/06/28 06:34:22;;;;;;;8.07;4.95;;;23.80;71.70;;;;;;5092335;28;20023;-71
2021/06/28 06:37:08;;;;;;;8.63;5.20;;;23.90;71.40;;;;;;5074605;28;20056;-71
2021/06/28 06:39:54;;;;;;;8.23;5.32;;;24.00;71.40;;;;;;5072096;28;20044;-71
2021/06/28 06:42:40;;;;;;;8.05;5.50;;;24.10;71.00;;;;;;5060561;28;20017;-72
2021/06/28 06:45:26;;;;;;;8.48;6.45;;;24.20;70.70;;;;;;5069672;28;20024;-70
2021/06/28 06:48:12;;;;;;;8.50;5.57;;;24.20;70.40;;;;;;5068825;28;20028;-72
2021/06/28 06:50:58;;;;;;;8.43;5.95;;;24.30;69.80;;;;;;5064598;28;20036;-71
2021/06/28 06:53:44;;;;;;;8.55;5.65;;;24.30;70.00;;;;;;5067997;28;20507;-71
2021/06/28 06:56:30;;;;;;;9.30;5.53;;;24.50;69.90;;;;;;5067430;28;21569;-72
2021/06/28 06:59:16;;;;;;;10.80;6.70;;;24.50;69.50;;;;;;5068327;28;20090;-71
2021/06/28 07:02:02;;;;;;;8.10;5.40;;;24.60;69.20;;;;;;5066292;28;20032;-71
2021/06/28 07:04:47;;;;;;;8.63;5.72;;;24.70;68.90;;;;;;5067008;28;20043;-72
2021/06/28 07:07:36;;;;;;;8.55;6.70;;;24.80;69.00;;;;;;5060356;28;20036;-72
2021/06/28 07:10:23;;;;;;;8.88;6.07;;;24.90;68.60;;;;;;5072226;28;20507;-71
2021/06/28 07:13:09;;;;;;;7.75;6.55;;;24.90;68.10;;;;;;5079605;28;20116;-72
2021/06/28 07:15:55;;;;;;;7.53;5.93;;;25.00;68.00;;;;;;5076632;28;20027;-72
2021/06/28 07:18:41;;;;;;;11.52;6.68;;;25.10;67.60;;;;;;5073323;28;20117;-72
2021/06/28 07:21:28;;;;;;;7.43;6.43;;;25.20;67.40;;;;;;5074233;28;20085;-72
2021/06/28 07:24:14;;;;;;;8.57;6.57;;;25.30;67.30;;;;;;5064817;28;20023;-72
2021/06/28 07:27:00;;;;;;;7.28;6.30;;;25.40;66.80;;;;;;5066394;28;20029;-72
2021/06/28 07:29:46;;;;;;;8.60;6.30;;;25.50;66.20;;;;;;5078909;28;20032;-72
2021/06/28 07:32:32;;;;;;;10.70;6.38;;;25.60;66.10;;;;;;5066485;28;20046;-72
2021/06/28 07:35:18;;;;;;;8.98;6.65;;;25.70;65.40;;;;;;5076429;28;20082;-68
2021/06/28 07:38:04;;;;;;;9.82;6.00;;;25.80;65.50;;;;;;5063438;28;20048;-72
2021/06/28 07:40:53;;;;;;;6.43;5.75;;;25.90;64.30;;;;;;5076406;28;20016;-72
2021/06/28 07:43:39;;;;;;;6.35;5.70;;;26.00;63.80;;;;;;5078946;28;20368;-71
2021/06/28 07:46:25;;;;;;;8.10;5.53;;;26.10;63.60;;;;;;5067915;28;20021;-71
2021/06/28 07:49:11;;;;;;;6.90;5.30;;;26.20;62.80;;;;;;5083775;28;20050;-71
2021/06/28 07:51:58;;;;;;;8.25;5.22;;;26.30;61.60;;;;;;5071249;28;20119;-71
2021/06/28 07:54:44;;;;;;;8.82;4.75;;;26.40;60.40;;;;;;5066125;28;20029;-70
2021/06/28 07:57:30;;;;;;;6.78;5.10;;;26.40;60.60;;;;;;5068970;28;20036;-69
2021/06/28 08:00:17;;;;;;;7.70;4.85;;;26.50;59.50;;;;;;5065658;28;20035;-70
2021/06/28 08:03:05;;;;;;;5.32;4.50;;;26.60;58.40;;;;;;5076334;28;20028;-70
2021/06/28 08:05:51;;;;;;;5.57;4.53;;;26.70;58.20;;;;;;5059434;28;20076;-70
2021/06/28 08:08:37;;;;;;;4.93;4.35;;;26.80;57.80;;;;;;5047429;28;20473;-70
2021/06/28 08:11:24;;;;;;;6.47;4.93;;;26.90;57.50;;;;;;5082933;28;20107;-71
2021/06/28 08:14:09;;;;;;;5.97;4.70;;;27.00;56.80;;;;;;5071381;28;20090;-70
2021/06/28 08:16:53;;;;;;;4.60;4.03;;;27.00;56.30;;;;;;5078054;28;20110;-70
2021/06/28 08:19:37;;;;;;;5.50;3.83;;;27.10;55.00;;;;;;5071407;28;20146;-69
2021/06/28 08:22:22;;;;;;;5.85;4.93;;;27.20;55.50;;;;;;5081922;28;20107;-69
2021/06/28 08:25:08;;;;;;;5.07;4.50;;;27.10;54.50;;;;;;5081392;28;20090;-69
2021/06/28 08:27:52;;;;;;;7.00;5.22;;;27.20;54.50;;;;;;5080777;28;20090;-69
2021/06/28 08:30:36;;;;;;;7.07;4.50;;;27.30;54.70;;;;;;5079900;28;20090;-69
2021/06/28 08:33:21;;;;;;;5.07;4.28;;;27.40;55.10;;;;;;5077974;28;20046;-69
2021/06/28 08:36:05;;;;;;;4.95;3.63;;;27.50;54.60;;;;;;5082662;28;20061;-69
2021/06/28 08:38:49;;;;;;;5.50;4.20;;;27.60;53.40;;;;;;5080353;28;20093;-69
2021/06/28 08:41:34;;;;;;;4.13;3.33;;;27.60;53.10;;;;;;5068523;28;20036;-67
2021/06/28 08:44:19;;;;;;;5.95;3.85;;;27.70;52.20;;;;;;5051260;28;20504;-67
2021/06/28 08:47:04;;;;;;;;;;;27.80;52.10;;;;;;5070294;28;20349;-68
2021/06/28 08:49:49;;;;;;;7.47;3.80;;;27.90;53.70;;;;;;5089765;28;20385;-69
2021/06/28 08:52:36;;;;;;;7.43;4.15;;;28.00;52.10;;;;;;5087575;28;20038;-69
2021/06/28 08:55:20;;;;;;;5.93;3.63;;;28.10;52.20;;;;;;5091294;28;20035;-68
2021/06/28 08:58:05;;;;;;;5.38;3.53;;;28.20;51.20;;;;;;5070760;28;20089;-68
2021/06/28 09:00:49;;;;;;;6.82;4.03;;;28.30;50.60;;;;;;5070453;28;20031;-69
2021/06/28 09:03:34;;;;;;;4.45;3.75;;;28.40;51.60;;;;;;5050876;28;20090;-69
2021/06/28 09:06:24;;;;;;;7.75;4.45;;;28.50;51.30;;;;;;5067560;28;20546;-69
2021/06/28 09:09:16;;;;;;;5.47;3.70;;;28.60;51.40;;;;;;5055728;28;20051;-69
2021/06/28 09:12:13;;;;;;;5.05;4.15;;;28.70;49.50;;;;;;5078138;28;20158;-68
2021/06/28 09:14:59;;;;;;;5.30;3.28;;;28.90;49.80;;;;;;5091298;28;20078;-68
2021/06/28 09:17:43;;;;;;;6.88;4.00;;;29.00;49.70;;;;;;5073363;28;20043;-68
2021/06/28 09:20:27;;;;;;;4.22;3.50;;;29.20;49.40;;;;;;5070797;28;20094;-68
2021/06/28 09:23:26;;;;;;;4.47;3.38;;;29.30;48.40;;;;;;5089163;28;20039;-69
2021/06/28 09:26:15;;;;;;;4.20;3.80;;;29.30;47.80;;;;;;5086918;28;20483;-69
2021/06/28 09:29:04;;;;;;;4.10;3.60;;;29.40;47.40;;;;;;5055817;28;20036;-68
2021/06/28 09:31:48;;;;;;;4.90;3.90;;;29.40;48.20;;;;;;5076058;28;20032;-68
2021/06/28 09:34:33;;;;;;;6.95;4.13;;;29.50;49.60;;;;;;5090836;28;20093;-68
2021/06/28 09:37:20;;;;;;;4.70;4.25;;;29.60;48.60;;;;;;5076954;28;20511;-68
2021/06/28 09:40:05;;;;;;;5.18;4.40;;;29.60;47.50;;;;;;5073133;28;20040;-68
2021/06/28 09:42:49;;;;;;;5.00;4.50;;;29.60;47.60;;;;;;5088031;28;20035;-68
2021/06/28 09:45:40;;;;;;;6.35;4.63;;;29.70;47.30;;;;;;5092797;28;20527;-68
2021/06/28 09:48:30;;;;;;;4.63;4.18;;;29.70;47.00;;;;;;5094465;28;20405;-68
2021/06/28 09:51:34;;;;;;;5.13;4.35;;;29.80;47.80;;;;;;5089223;28;20499;-68
2021/06/28 09:54:20;;;;;;;6.07;4.53;;;29.90;48.20;;;;;;5094400;28;20092;-69
2021/06/28 09:57:06;;;;;;;7.18;4.10;;;30.00;47.40;;;;;;5082301;28;20044;-69
2021/06/28 09:59:50;;;;;;;5.18;4.07;;;30.10;47.50;;;;;;5058077;28;20039;-69
2021/06/28 10:02:39;;;;;;;4.63;4.20;;;30.20;46.70;;;;;;5051129;28;20124;-69
2021/06/28 10:05:27;;;;;;;6.40;4.03;;;30.20;45.70;;;;;;5053579;28;20111;-69
2021/06/28 10:08:15;;;;;;;5.30;4.32;;;30.20;45.70;;;;;;5073410;28;20044;-69
2021/06/28 10:10:47;;;;;;;7.13;4.47;;;30.10;45.40;;;;;;5057737;28;20492;-69
2021/06/28 10:13:31;;;;;;;4.97;4.13;;;30.10;45.40;;;;;;5053799;28;20417;-69
2021/06/28 10:16:19;;;;;;;4.93;3.90;;;30.10;45.50;;;;;;5057572;28;20036;-69
2021/06/28 10:19:04;;;;;;;5.38;3.75;;;30.10;45.80;;;;;;5082911;28;20469;-69
2021/06/28 10:21:53;;;;;;;4.00;3.58;;;30.20;45.10;;;;;;5083784;28;20104;-70
2021/06/28 10:24:37;;;;;;;3.85;3.03;;;30.20;44.70;;;;;;5073527;28;20495;-70
2021/06/28 10:27:21;;;;;;;3.85;3.45;;;30.30;43.80;;;;;;5070242;28;20023;-69
2021/06/28 10:30:12;;;;;;;3.50;3.15;;;30.30;44.30;;;;;;5073579;28;20097;-69
2021/06/28 10:33:05;;;;;;;3.42;2.90;;;30.30;44.30;;;;;;5072579;28;20032;-70
2021/06/28 10:35:57;;;;;;;3.70;3.28;;;30.40;43.90;;;;;;5071568;28;20095;-69
2021/06/28 10:38:52;;;;;;;6.78;3.22;;;30.40;44.10;;;;;;5053050;28;20040;-69
2021/06/28 10:41:49;;;;;;;;;;;30.50;44.50;;;;;;5059875;28;20074;-69
2021/06/28 10:44:48;;;;;;;4.13;3.40;;;30.60;45.50;;;;;;5080104;28;19915;-69
2021/06/28 10:47:32;;;;;;;3.03;2.72;;;30.60;44.10;;;;;;5084966;28;20081;-68
2021/06/28 10:50:19;;;;;;;3.30;2.70;;;30.60;43.60;;;;;;5092950;28;20089;-68
2021/06/28 10:53:03;;;;;;;3.97;3.17;;;30.60;43.70;;;;;;5089937;28;20093;-68
2021/06/28 10:55:47;;;;;;;5.22;2.90;;;30.60;43.90;;;;;;5077495;28;20102;-68
2021/06/28 10:58:32;;;;;;;4.43;3.17;;;30.60;43.20;;;;;;5072656;28;20051;-68
2021/06/28 11:01:17;;;;;;;3.60;2.67;;;30.60;42.00;;;;;;5073731;28;20381;-68
2021/06/28 11:04:08;;;;;;;3.42;2.75;;;30.60;42.70;;;;;;5092868;28;20047;-68
2021/06/28 11:06:55;;;;;;;5.30;3.33;;;30.60;42.50;;;;;;5082537;28;20079;-68
2021/06/28 11:09:56;;;;;;;3.67;2.72;;;30.60;42.80;;;;;;5072040;28;20119;-68
2021/06/28 11:12:41;;;;;;;4.38;3.05;;;30.60;43.10;;;;;;5085313;28;20058;-68
2021/06/28 11:15:25;;;;;;;5.45;3.08;;;30.80;43.20;;;;;;5092819;28;20035;-68
2021/06/28 11:18:27;;;;;;;3.78;3.08;;;30.80;43.10;;;;;;5071547;28;20869;-68
2021/06/28 11:21:11;;;;;;;4.43;3.15;;;30.90;43.20;;;;;;5073077;28;20063;-68
2021/06/28 11:24:00;;;;;;;6.65;4.00;;;31.00;43.80;;;;;;5078235;28;20035;-67
2021/06/28 11:26:44;;;;;;;6.43;4.13;;;31.10;43.90;;;;;;5085948;28;20051;-67
2021/06/28 11:29:48;;;;;;;7.95;3.60;;;31.10;43.90;;;;;;5092404;28;20070;-67
2021/06/28 11:32:32;;;;;;;6.60;3.20;;;31.20;43.10;;;;;;5076569;28;20566;-67
2021/06/28 11:35:44;;;;;;;5.30;3.25;;;31.30;43.50;;;;;;5069498;28;20048;-68
2021/06/28 11:38:37;;;;;;;3.92;2.72;;;31.30;42.20;;;;;;5051288;28;20091;-69
2021/06/28 11:41:23;;;;;;;3.80;3.22;;;31.40;41.80;;;;;;5080684;28;20537;-67
2021/06/28 11:44:24;;;;;;;3.47;3.05;;;31.50;41.60;;;;;;5092448;28;20035;-69
2021/06/28 11:47:08;;;;;;;3.65;2.78;;;31.50;42.50;;;;;;5079808;28;20047;-69
2021/06/28 11:50:24;;;;;;;3.65;3.10;;;31.60;42.40;;;;;;5071882;28;20036;-69
2021/06/28 11:53:10;;;;;;;3.70;3.08;;;31.70;41.70;;;;;;5086876;28;20108;-69
2021/06/28 11:55:55;;;;;;;4.25;3.38;;;31.70;41.50;;;;;;5073316;28;20035;-69
2021/06/28 11:58:39;;;;;;;4.95;3.50;;;31.80;41.80;;;;;;5051540;28;20511;-69
2021/06/28 12:01:29;;;;;;;3.60;2.67;;;31.80;42.40;;;;;;5058802;28;20043;-69
2021/06/28 12:04:15;;;;;;;4.03;3.63;;;31.90;41.60;;;;;;5091076;28;20050;-70
2021/06/28 12:07:01;;;;;;;4.65;3.40;;;31.90;41.20;;;;;;5075411;28;20031;-70
2021/06/28 12:09:49;;;;;;;3.70;3.30;;;32.00;41.30;;;;;;5081222;28;20512;-68
2021/06/28 12:12:33;;;;;;;3.83;2.55;;;32.10;41.70;;;;;;5065157;28;20138;-69
2021/06/28 12:15:22;;;;;;;;;;;32.10;41.50;;;;;;5072318;28;20035;-69
2021/06/28 12:18:08;;;;;;;6.45;3.35;;;32.30;42.30;;;;;;5085495;28;19916;-69
2021/06/28 12:20:57;;;;;;;3.65;2.85;;;32.30;41.50;;;;;;5070021;28;20031;-68
2021/06/28 12:23:43;;;;;;;4.75;3.58;;;32.30;41.20;;;;;;5051026;28;20040;-68
2021/06/28 12:26:28;;;;;;;3.95;3.00;;;32.20;39.90;;;;;;5056507;28;20066;-68
2021/06/28 12:29:33;;;;;;;3.70;3.13;;;32.20;40.20;;;;;;5085970;28;20052;-69
2021/06/28 12:32:23;;;;;;;3.67;3.00;;;32.10;39.80;;;;;;5084630;28;20032;-68
2021/06/28 12:35:13;;;;;;;5.32;3.42;;;32.00;39.20;;;;;;5090081;28;20032;-69
2021/06/28 12:38:03;;;;;;;4.00;2.92;;;31.90;39.30;;;;;;5069092;28;20025;-68
2021/06/28 12:40:49;;;;;;;5.40;3.10;;;31.90;39.70;;;;;;5079051;28;20047;-68
2021/06/28 12:43:34;;;;;;;3.70;3.30;;;31.90;39.10;;;;;;5068484;28;20500;-68
2021/06/28 12:46:20;;;;;;;5.60;3.22;;;31.80;39.80;;;;;;5068867;28;20024;-68
2021/06/28 12:49:07;;;;;;;3.92;3.00;;;31.80;39.60;;;;;;5069518;28;20032;-68
2021/06/28 12:51:53;;;;;;;4.78;3.03;;;31.90;40.20;;;;;;5076444;28;20044;-68
2021/06/28 12:54:39;;;;;;;5.50;3.85;;;31.90;39.40;;;;;;5089729;28;20020;-68
2021/06/28 12:57:25;;;;;;;3.92;3.25;;;31.90;40.00;;;;;;5074599;28;20024;-68
2021/06/28 13:00:17;;;;;;;5.15;3.10;;;31.80;39.00;;;;;;5084679;28;20063;-68
2021/06/28 13:03:05;;;;;;;3.90;3.50;;;31.90;39.20;;;;;;5086203;28;20159;-68
2021/06/28 13:05:53;;;;;;;3.50;3.00;;;32.00;39.60;;;;;;5087845;28;20516;-68
2021/06/28 13:08:39;;;;;;;4.03;3.10;;;32.10;39.40;;;;;;5069094;28;20408;-68
2021/06/28 13:11:24;;;;;;;4.97;3.13;;;32.20;38.80;;;;;;5071582;28;20484;-69
2021/06/28 13:14:11;;;;;;;5.05;3.55;;;32.10;38.80;;;;;;5091723;28;20081;-69
2021/06/28 13:20:00;;;;;;;3.55;3.05;;;32.00;39.10;;;;;;5058999;28;20509;-69
2021/06/28 13:22:46;;;;;;;4.28;3.50;;;32.10;39.00;;;;;;5066151;28;20373;-69
2021/06/28 13:25:32;;;;;;;4.85;3.58;;;32.30;39.70;;;;;;5072515;28;20481;-68
2021/06/28 13:28:18;;;;;;;5.35;3.28;;;32.50;39.20;;;;;;5070170;28;20442;-68
2021/06/28 13:31:03;;;;;;;5.53;3.38;;;32.60;38.40;;;;;;5072524;28;20598;-69
2021/06/28 13:34:11;;;;;;;4.00;3.15;;;32.60;38.60;;;;;;5062978;28;20384;-68
2021/06/28 13:37:14;;;;;;;4.57;3.63;;;32.80;38.10;;;;;;5080557;28;20028;-67
2021/06/28 13:40:02;;;;;;;4.50;3.60;;;33.00;38.60;;;;;;5056766;28;20029;-67
2021/06/28 13:42:47;;;;;;;3.42;3.10;;;33.10;38.50;;;;;;5066169;28;20611;-67
2021/06/28 13:45:42;;;;;;;4.78;2.97;;;33.30;37.90;;;;;;5077686;28;20408;-66
2021/06/28 13:48:27;;;;;;;4.03;3.50;;;33.40;37.70;;;;;;5073656;28;20484;-67
2021/06/28 13:51:13;;;;;;;4.10;3.17;;;33.60;37.90;;;;;;5069197;28;20040;-67
2021/06/28 13:53:59;;;;;;;4.82;3.90;;;33.70;37.60;;;;;;5067467;28;20032;-68
2021/06/28 13:56:45;;;;;;;5.35;3.92;;;33.80;37.80;;;;;;5056332;28;20397;-68
2021/06/28 13:59:31;;;;;;;4.78;3.50;;;33.70;37.00;;;;;;5082062;28;20582;-69
2021/06/28 14:02:17;;;;;;;4.30;3.90;;;33.50;37.70;;;;;;5070160;28;20028;-68
2021/06/28 14:05:03;;;;;;;3.90;3.50;;;33.40;38.50;;;;;;5055734;28;20053;-68
2021/06/28 14:07:49;;;;;;;3.75;3.20;;;33.30;37.90;;;;;;5072574;28;20069;-68
2021/06/28 14:10:36;;;;;;;3.88;2.90;;;33.20;37.80;;;;;;5063766;28;20033;-68
2021/06/28 14:13:21;;;;;;;4.65;3.05;;;33.20;37.40;;;;;;5082198;28;20031;-68
2021/06/28 14:16:05;;;;;;;4.60;2.92;;;33.20;37.60;;;;;;5082531;28;20071;-68
2021/06/28 14:18:49;;;;;;;4.90;3.45;;;33.20;37.30;;;;;;5075122;28;20123;-67
2021/06/28 14:21:36;;;;;;;5.50;3.33;;;33.30;37.40;;;;;;5073673;28;20110;-68
2021/06/28 14:24:20;;;;;;;5.38;3.28;;;33.20;37.80;;;;;;5075006;28;20409;-68
2021/06/28 14:27:04;;;;;;;4.18;3.22;;;33.20;37.40;;;;;;5074519;28;20036;-68